Terminal Aerodrome Forecast
Issued by NWS

Home | Current Version | Previous Version | Text Only | Print | Product List | Glossary On
Versions: 1 2 3 4 5 6 7 8 9 10 11 12 13 14 15
000
FTUS43 KSGF 012300
TAFBBG
TAF
KBBG 012320Z 0200/0224 16012KT P6SM SKC
     FM020400 15006KT P6SM BKN250
     FM021000 17006KT P6SM SCT035 BKN100
     FM021800 18010KT P6SM VCTS SCT035CB BKN070
      TEMPO 0220/0224 3SM -TSRA BR BKN035CB=

USA.gov is the U.S. government's official web portal to all federal, state and local government web resources and services.